Time;durP1;ratioP1;P1;durP2;ratioP2;P2;SDS_P1;SDS_P2;PMS_P1;PMS_P2;Temp;Humidity;BMP_temperature;BMP_pressure;BME280_temperature;BME280_humidity;BME280_pressure;Samples;Min_cycle;Max_cycle;Signal;HPM_P1;HPM_P2
2021/08/14 00:02:13;;;;;;;6.80;5.03;;;;;;;;;;5055012;28;20025;-59
2021/08/14 00:04:39;;;;;;;6.07;4.78;;;;;;;;;;5054268;28;20040;-59
2021/08/14 00:07:05;;;;;;;7.32;5.20;;;;;;;;;;5054252;28;20053;-59
2021/08/14 00:09:34;;;;;;;5.72;4.60;;;;;;;;;;5053184;28;20482;-59
2021/08/14 00:12:00;;;;;;;6.63;4.75;;;;;;;;;;5054273;28;20048;-59
2021/08/14 00:14:26;;;;;;;8.38;4.90;;;;;;;;;;5053866;28;20021;-59
2021/08/14 00:16:52;;;;;;;6.60;4.78;;;;;;;;;;5054450;28;20021;-59
2021/08/14 00:19:18;;;;;;;5.85;4.95;;;;;;;;;;5054339;28;20409;-59
2021/08/14 00:21:44;;;;;;;8.07;4.30;;;;;;;;;;5054014;28;20027;-59
2021/08/14 00:24:10;;;;;;;5.25;4.53;;;;;;;;;;5054216;28;20032;-59
2021/08/14 00:26:39;;;;;;;6.38;4.70;;;;;;;;;;5054414;28;20053;-59
2021/08/14 00:29:05;;;;;;;5.18;4.60;;;;;;;;;;5053187;28;20359;-59
2021/08/14 00:31:31;;;;;;;6.35;4.43;;;;;;;;;;5053795;28;20032;-59
2021/08/14 00:33:57;;;;;;;7.90;5.47;;;;;;;;;;5053858;28;20480;-59
2021/08/14 00:36:24;;;;;;;5.75;4.85;;;;;;;;;;5054150;28;20063;-58
2021/08/14 00:38:50;;;;;;;6.93;5.40;;;;;;;;;;5053816;28;20028;-58
2021/08/14 00:41:15;;;;;;;5.72;5.10;;;;;;;;;;5054072;28;20039;-59
2021/08/14 00:43:42;;;;;;;5.07;4.47;;;;;;;;;;5054268;28;20021;-58
2021/08/14 00:46:08;;;;;;;6.18;4.55;;;;;;;;;;5053602;28;20482;-58
2021/08/14 00:48:34;;;;;;;7.55;5.00;;;;;;;;;;5054213;28;20025;-59
2021/08/14 00:51:00;;;;;;;7.05;4.95;;;;;;;;;;5053409;28;20040;-59
2021/08/14 00:53:26;;;;;;;7.93;6.25;;;;;;;;;;5053651;28;20029;-58
2021/08/14 00:55:54;;;;;;;5.65;5.05;;;;;;;;;;5053614;28;20105;-58
2021/08/14 00:58:20;;;;;;;7.43;4.97;;;;;;;;;;5053832;28;20040;-59
2021/08/14 01:00:46;;;;;;;6.55;4.95;;;;;;;;;;5054069;28;20029;-59
2021/08/14 01:03:12;;;;;;;6.03;5.07;;;;;;;;;;5053442;28;20013;-59
2021/08/14 01:05:39;;;;;;;8.35;6.00;;;;;;;;;;5053069;28;20458;-59
2021/08/14 01:08:05;;;;;;;6.25;4.90;;;;;;;;;;5053469;28;20104;-59
2021/08/14 01:10:32;;;;;;;5.13;4.60;;;;;;;;;;5053931;28;20090;-58
2021/08/14 01:12:59;;;;;;;6.82;4.95;;;;;;;;;;5053533;28;20032;-58
2021/08/14 01:15:25;;;;;;;6.43;5.03;;;;;;;;;;5052077;28;20462;-58
2021/08/14 01:17:51;;;;;;;5.75;4.53;;;;;;;;;;5053878;28;20039;-58
2021/08/14 01:20:17;;;;;;;5.93;5.32;;;;;;;;;;5052893;28;20506;-58
2021/08/14 01:22:43;;;;;;;6.32;5.45;;;;;;;;;;5054065;28;20029;-58
2021/08/14 01:25:10;;;;;;;12.07;6.70;;;;;;;;;;5053088;28;20053;-58
2021/08/14 01:27:36;;;;;;;7.97;5.35;;;;;;;;;;5053610;28;20043;-59
2021/08/14 01:30:03;;;;;;;6.88;5.30;;;;;;;;;;5053350;28;20037;-59
2021/08/14 01:32:30;;;;;;;5.55;5.00;;;;;;;;;;5052926;28;20024;-58
2021/08/14 01:34:56;;;;;;;9.38;5.80;;;;;;;;;;5052467;28;20463;-58
2021/08/14 01:37:22;;;;;;;5.72;5.13;;;;;;;;;;5051758;28;20456;-58
2021/08/14 01:39:48;;;;;;;5.50;4.80;;;;;;;;;;5053570;28;20028;-58
2021/08/14 01:42:14;;;;;;;6.30;4.25;;;;;;;;;;5052835;28;20090;-58
2021/08/14 01:44:40;;;;;;;6.80;5.30;;;;;;;;;;5052982;28;20060;-58
2021/08/14 01:47:07;;;;;;;8.57;5.22;;;;;;;;;;5053066;28;20079;-58
2021/08/14 01:49:33;;;;;;;9.27;5.18;;;;;;;;;;5052962;28;20075;-58
2021/08/14 01:52:00;;;;;;;7.22;5.38;;;;;;;;;;5053315;28;20440;-58
2021/08/14 01:54:26;;;;;;;6.13;5.50;;;;;;;;;;5052955;28;20104;-61
2021/08/14 01:56:52;;;;;;;6.10;4.78;;;;;;;;;;5053013;28;20053;-58
2021/08/14 01:59:18;;;;;;;5.82;4.97;;;;;;;;;;5052905;28;20032;-58
2021/08/14 02:01:44;;;;;;;6.20;5.22;;;;;;;;;;5052982;28;20452;-59
2021/08/14 02:04:10;;;;;;;6.13;5.07;;;;;;;;;;5055116;28;20090;-58
2021/08/14 02:06:36;;;;;;;7.32;4.68;;;;;;;;;;5055338;28;20028;-59
2021/08/14 02:09:03;;;;;;;6.95;5.30;;;;;;;;;;5056900;28;20098;-58
2021/08/14 02:11:30;;;;;;;6.90;5.75;;;;;;;;;;5056393;28;20025;-58
2021/08/14 02:13:56;;;;;;;6.03;5.43;;;;;;;;;;5056546;28;20096;-58
2021/08/14 02:16:23;;;;;;;6.07;5.00;;;;;;;;;;5056655;28;20071;-58
2021/08/14 02:18:49;;;;;;;6.63;5.30;;;;;;;;;;5056396;28;20060;-58
2021/08/14 02:21:15;;;;;;;6.32;5.18;;;;;;;;;;5056321;28;20052;-58
2021/08/14 02:23:41;;;;;;;8.05;5.20;;;;;;;;;;5056900;28;20358;-58
2021/08/14 02:26:08;;;;;;;6.57;5.88;;;;;;;;;;5056741;28;20060;-58
2021/08/14 02:28:34;;;;;;;7.45;5.35;;;;;;;;;;5056238;28;20096;-58
2021/08/14 02:31:00;;;;;;;6.13;5.18;;;;;;;;;;5056202;28;20112;-58
2021/08/14 02:33:27;;;;;;;6.05;5.05;;;;;;;;;;5056710;28;20064;-58
2021/08/14 02:35:53;;;;;;;6.72;5.35;;;;;;;;;;5056056;28;20435;-58
2021/08/14 02:38:19;;;;;;;9.25;5.53;;;;;;;;;;5056543;28;20051;-58
2021/08/14 02:40:46;;;;;;;6.30;4.53;;;;;;;;;;5054731;28;20116;-58
2021/08/14 02:43:13;;;;;;;5.85;4.90;;;;;;;;;;5055932;28;20100;-58
2021/08/14 02:45:39;;;;;;;6.75;5.68;;;;;;;;;;5056296;28;20027;-58
2021/08/14 02:48:05;;;;;;;6.82;5.22;;;;;;;;;;5056320;28;20021;-58
2021/08/14 02:50:31;;;;;;;6.60;5.10;;;;;;;;;;5055782;28;20067;-58
2021/08/14 02:52:57;;;;;;;6.28;5.68;;;;;;;;;;5055565;28;20075;-58
2021/08/14 02:55:24;;;;;;;5.95;5.05;;;;;;;;;;5055705;28;20021;-58
2021/08/14 02:57:49;;;;;;;6.35;5.20;;;;;;;;;;5055695;28;20064;-58
2021/08/14 03:00:16;;;;;;;6.97;5.47;;;;;;;;;;5055823;28;20049;-58
2021/08/14 03:02:42;;;;;;;5.55;4.88;;;;;;;;;;5056195;28;20025;-58
2021/08/14 03:05:08;;;;;;;6.68;5.18;;;;;;;;;;5055480;28;20025;-58
2021/08/14 03:07:34;;;;;;;5.78;5.13;;;;;;;;;;5055752;28;20366;-58
2021/08/14 03:10:00;;;;;;;6.40;4.82;;;;;;;;;;5055302;28;20124;-58
2021/08/14 03:12:26;;;;;;;9.05;5.80;;;;;;;;;;5055478;28;20061;-58
2021/08/14 03:14:52;;;;;;;6.05;4.72;;;;;;;;;;5054364;28;20040;-59
2021/08/14 03:17:18;;;;;;;8.65;5.60;;;;;;;;;;5055891;28;20025;-58
2021/08/14 03:19:44;;;;;;;6.40;5.75;;;;;;;;;;5055122;28;20051;-58
2021/08/14 03:22:11;;;;;;;8.25;6.45;;;;;;;;;;5055571;28;20370;-58
2021/08/14 03:24:37;;;;;;;5.82;5.22;;;;;;;;;;5055505;28;20051;-58
2021/08/14 03:27:03;;;;;;;6.13;5.53;;;;;;;;;;5054884;28;20113;-58
2021/08/14 03:29:29;;;;;;;14.30;6.32;;;;;;;;;;5054995;28;20071;-58
2021/08/14 03:31:55;;;;;;;9.48;6.57;;;;;;;;;;5055299;28;20017;-58
2021/08/14 03:34:21;;;;;;;7.05;6.32;;;;;;;;;;5055568;28;20409;-58
2021/08/14 03:36:47;;;;;;;6.15;5.28;;;;;;;;;;5054936;28;20021;-58
2021/08/14 03:39:13;;;;;;;6.88;5.82;;;;;;;;;;5054379;28;20120;-58
2021/08/14 03:41:40;;;;;;;6.63;5.88;;;;;;;;;;5054214;28;20117;-58
2021/08/14 03:44:06;;;;;;;8.55;6.68;;;;;;;;;;5054171;28;20032;-58
2021/08/14 03:46:32;;;;;;;8.95;7.72;;;;;;;;;;5055368;28;20025;-58
2021/08/14 03:48:58;;;;;;;6.60;5.50;;;;;;;;;;5055298;28;20021;-58
2021/08/14 03:51:24;;;;;;;6.53;5.78;;;;;;;;;;5054560;28;20056;-58
2021/08/14 03:53:50;;;;;;;8.35;6.47;;;;;;;;;;5054347;28;20025;-58
2021/08/14 03:56:16;;;;;;;7.00;6.20;;;;;;;;;;5054637;28;20075;-58
2021/08/14 03:58:42;;;;;;;7.78;6.97;;;;;;;;;;5054523;28;20057;-58
2021/08/14 04:01:08;;;;;;;9.55;5.72;;;;;;;;;;5054294;28;20025;-58
2021/08/14 04:03:34;;;;;;;7.18;6.43;;;;;;;;;;5054870;28;20028;-58
2021/08/14 04:06:00;;;;;;;7.22;6.22;;;;;;;;;;5054486;28;20099;-58
2021/08/14 04:08:27;;;;;;;10.40;6.10;;;;;;;;;;5054468;28;20421;-58
2021/08/14 04:10:53;;;;;;;7.88;5.93;;;;;;;;;;5054234;28;20068;-58
2021/08/14 04:13:19;;;;;;;9.35;6.07;;;;;;;;;;5054635;28;20077;-59
2021/08/14 04:15:45;;;;;;;6.80;5.88;;;;;;;;;;5054249;28;20021;-58
2021/08/14 04:18:11;;;;;;;7.32;5.53;;;;;;;;;;5054292;28;20096;-58
2021/08/14 04:20:37;;;;;;;6.35;5.63;;;;;;;;;;5054052;28;20098;-58
2021/08/14 04:23:04;;;;;;;7.03;5.80;;;;;;;;;;5054391;28;20035;-58
2021/08/14 04:25:30;;;;;;;9.50;5.97;;;;;;;;;;5054825;28;20370;-58
2021/08/14 04:27:56;;;;;;;6.45;5.68;;;;;;;;;;5053704;28;20373;-58
2021/08/14 04:30:22;;;;;;;6.63;5.75;;;;;;;;;;5053964;28;20041;-58
2021/08/14 04:32:50;;;;;;;6.35;5.63;;;;;;;;;;5054091;28;20101;-58
2021/08/14 04:35:17;;;;;;;7.43;6.03;;;;;;;;;;5053995;28;20013;-58
2021/08/14 04:37:43;;;;;;;8.15;6.80;;;;;;;;;;5053872;28;20021;-58
2021/08/14 04:40:11;;;;;;;7.32;6.47;;;;;;;;;;5053917;28;20031;-58
2021/08/14 04:42:37;;;;;;;7.32;6.60;;;;;;;;;;5054704;28;20104;-58
2021/08/14 04:45:04;;;;;;;10.52;6.97;;;;;;;;;;5053781;28;20021;-58
2021/08/14 04:47:32;;;;;;;7.65;6.43;;;;;;;;;;5054094;28;20101;-58
2021/08/14 04:49:58;;;;;;;6.45;5.72;;;;;;;;;;5053634;28;20036;-58
2021/08/14 04:52:26;;;;;;;8.15;6.10;;;;;;;;;;5053911;28;20025;-58
2021/08/14 04:54:52;;;;;;;7.65;6.88;;;;;;;;;;5052496;28;20021;-58
2021/08/14 04:57:18;;;;;;;6.57;5.93;;;;;;;;;;5052225;28;20025;-58
2021/08/14 04:59:45;;;;;;;10.27;5.95;;;;;;;;;;5052878;28;20120;-58
2021/08/14 05:02:11;;;;;;;7.82;6.18;;;;;;;;;;5053683;28;20021;-58
2021/08/14 05:04:37;;;;;;;11.85;6.20;;;;;;;;;;5053602;28;20025;-58
2021/08/14 05:07:04;;;;;;;7.35;6.25;;;;;;;;;;5053892;28;20079;-58
2021/08/14 05:09:30;;;;;;;8.80;6.28;;;;;;;;;;5053513;28;20048;-58
2021/08/14 05:11:56;;;;;;;7.20;6.50;;;;;;;;;;5053915;28;20394;-58
2021/08/14 05:14:22;;;;;;;9.25;6.20;;;;;;;;;;5052056;28;20028;-58
2021/08/14 05:16:48;;;;;;;7.80;6.50;;;;;;;;;;5053822;28;20471;-58
2021/08/14 05:19:14;;;;;;;8.68;7.00;;;;;;;;;;5053870;28;20039;-58
2021/08/14 05:21:40;;;;;;;6.43;5.82;;;;;;;;;;5053521;28;20143;-58
2021/08/14 05:24:06;;;;;;;6.97;5.93;;;;;;;;;;5053104;28;20155;-58
2021/08/14 05:26:32;;;;;;;7.35;6.00;;;;;;;;;;5053774;28;20045;-58
2021/08/14 05:28:58;;;;;;;7.38;6.20;;;;;;;;;;5053375;28;20056;-58
2021/08/14 05:31:24;;;;;;;6.97;6.30;;;;;;;;;;5053493;28;20037;-58
2021/08/14 05:33:50;;;;;;;8.90;6.43;;;;;;;;;;5035537;28;20021;-58
2021/08/14 05:36:16;;;;;;;10.98;7.38;;;;;;;;;;5053044;28;20426;-58
2021/08/14 05:38:42;;;;;;;11.23;8.07;;;;;;;;;;5054456;28;20410;-58
2021/08/14 05:41:08;;;;;;;7.30;6.30;;;;;;;;;;5058026;28;20033;-58
2021/08/14 05:43:34;;;;;;;9.90;7.57;;;;;;;;;;5057925;28;20029;-58
2021/08/14 05:46:00;;;;;;;8.77;7.18;;;;;;;;;;5057419;28;20025;-58
2021/08/14 05:48:26;;;;;;;9.45;8.45;;;;;;;;;;5057410;28;20473;-59
2021/08/14 05:50:52;;;;;;;8.98;7.70;;;;;;;;;;5056960;28;20037;-59
2021/08/14 05:53:19;;;;;;;8.93;7.53;;;;;;;;;;5057462;28;20111;-59
2021/08/14 05:55:45;;;;;;;9.63;7.63;;;;;;;;;;5057087;28;20139;-59
2021/08/14 05:58:12;;;;;;;7.45;6.40;;;;;;;;;;5057125;28;20029;-59
2021/08/14 06:00:38;;;;;;;7.63;6.72;;;;;;;;;;5056816;28;20406;-59
2021/08/14 06:03:04;;;;;;;10.88;7.60;;;;;;;;;;5057169;28;20029;-58
2021/08/14 06:05:30;;;;;;;13.60;6.78;;;;;;;;;;5056057;28;20021;-59
2021/08/14 06:07:56;;;;;;;10.20;6.93;;;;;;;;;;5056754;28;20439;-58
2021/08/14 06:10:22;;;;;;;8.93;6.40;;;;;;;;;;5057073;28;20339;-58
2021/08/14 06:12:48;;;;;;;8.05;7.15;;;;;;;;;;5057501;28;20104;-58
2021/08/14 06:15:14;;;;;;;7.38;6.18;;;;;;;;;;5057351;28;20071;-58
2021/08/14 06:17:40;;;;;;;13.10;6.65;;;;;;;;;;5056611;28;20056;-58
2021/08/14 06:20:10;;;;;;;7.03;6.22;;;;;;;;;;5056477;28;20028;-59
2021/08/14 06:22:37;;;;;;;8.07;7.03;;;;;;;;;;5056828;28;20336;-58
2021/08/14 06:25:03;;;;;;;7.38;5.57;;;;;;;;;;5056544;28;20055;-59
2021/08/14 06:27:29;;;;;;;7.00;6.20;;;;;;;;;;5055344;28;20102;-58
2021/08/14 06:29:55;;;;;;;7.93;6.85;;;;;;;;;;5056135;28;20060;-58
2021/08/14 06:32:21;;;;;;;6.80;5.82;;;;;;;;;;5056311;28;20126;-59
2021/08/14 06:34:47;;;;;;;7.22;6.53;;;;;;;;;;5056530;28;20036;-58
2021/08/14 06:37:13;;;;;;;8.35;6.65;;;;;;;;;;5056035;28;20028;-59
2021/08/14 06:39:39;;;;;;;7.53;6.25;;;;;;;;;;5055742;28;20025;-58
2021/08/14 06:42:05;;;;;;;6.97;6.28;;;;;;;;;;5056278;28;20025;-59
2021/08/14 06:44:33;;;;;;;7.30;6.50;;;;;;;;;;5055897;28;20100;-58
2021/08/14 06:47:00;;;;;;;7.70;5.68;;;;;;;;;;5055835;28;20028;-58
2021/08/14 06:49:26;;;;;;;7.85;6.28;;;;;;;;;;5055734;28;20017;-58
2021/08/14 06:51:52;;;;;;;6.53;5.68;;;;;;;;;;5055285;28;20017;-58
2021/08/14 06:54:18;;;;;;;8.95;6.57;;;;;;;;;;5056010;28;20036;-58
2021/08/14 06:56:44;;;;;;;8.25;7.00;;;;;;;;;;5055865;28;20055;-59
2021/08/14 06:59:10;;;;;;;7.97;6.93;;;;;;;;;;5055988;28;20025;-59
2021/08/14 07:01:36;;;;;;;9.57;6.28;;;;;;;;;;5056000;28;20375;-59
2021/08/14 07:04:02;;;;;;;7.97;6.18;;;;;;;;;;5055937;28;20068;-59
2021/08/14 07:06:28;;;;;;;9.02;6.35;;;;;;;;;;5055648;28;20369;-59
2021/08/14 07:08:54;;;;;;;10.32;6.65;;;;;;;;;;5055929;28;20025;-58
2021/08/14 07:11:21;;;;;;;7.28;6.57;;;;;;;;;;5056351;28;20071;-59
2021/08/14 07:13:47;;;;;;;7.43;6.65;;;;;;;;;;5055466;28;20045;-59
2021/08/14 07:16:13;;;;;;;7.30;5.63;;;;;;;;;;5055403;28;20032;-59
2021/08/14 07:18:39;;;;;;;6.85;6.15;;;;;;;;;;5055373;28;20029;-59
2021/08/14 07:21:05;;;;;;;7.75;6.95;;;;;;;;;;5055368;28;20025;-59
2021/08/14 07:23:31;;;;;;;8.52;7.50;;;;;;;;;;5055868;28;20028;-59
2021/08/14 07:25:57;;;;;;;9.73;6.63;;;;;;;;;;5054906;28;20048;-59
2021/08/14 07:28:25;;;;;;;8.88;6.78;;;;;;;;;;5053928;28;20076;-59
2021/08/14 07:30:51;;;;;;;7.82;6.85;;;;;;;;;;5055040;28;20083;-59
2021/08/14 07:33:17;;;;;;;10.93;7.30;;;;;;;;;;5055107;28;20039;-59
2021/08/14 07:35:43;;;;;;;8.20;6.47;;;;;;;;;;5055053;28;20021;-59
2021/08/14 07:38:09;;;;;;;7.93;7.22;;;;;;;;;;5053844;28;20514;-59
2021/08/14 07:40:35;;;;;;;7.07;6.38;;;;;;;;;;5054974;28;20447;-59
2021/08/14 07:43:02;;;;;;;7.18;6.05;;;;;;;;;;5054824;28;20024;-59
2021/08/14 07:45:29;;;;;;;10.13;7.13;;;;;;;;;;5054813;28;20061;-60
2021/08/14 07:47:55;;;;;;;8.50;7.10;;;;;;;;;;5055610;28;20406;-60
2021/08/14 07:50:25;;;;;;;6.55;5.95;;;;;;;;;;5054925;28;20029;-60
2021/08/14 07:52:51;;;;;;;8.77;6.47;;;;;;;;;;5055097;28;20087;-60
2021/08/14 07:55:17;;;;;;;10.02;7.10;;;;;;;;;;5054511;28;20067;-60
2021/08/14 07:57:44;;;;;;;9.70;6.65;;;;;;;;;;5054695;28;20021;-60
2021/08/14 08:00:11;;;;;;;7.88;6.43;;;;;;;;;;5054663;28;20116;-60
2021/08/14 08:02:38;;;;;;;9.23;6.90;;;;;;;;;;5053809;28;20025;-60
2021/08/14 08:05:04;;;;;;;9.40;6.10;;;;;;;;;;5054427;28;20021;-60
2021/08/14 08:07:30;;;;;;;8.95;6.68;;;;;;;;;;5054745;28;20021;-60
2021/08/14 08:09:56;;;;;;;8.07;6.55;;;;;;;;;;5052752;28;20121;-60
2021/08/14 08:12:22;;;;;;;11.65;7.22;;;;;;;;;;5054976;28;20060;-60
2021/08/14 08:14:48;;;;;;;7.20;6.32;;;;;;;;;;5054243;28;20060;-60
2021/08/14 08:17:14;;;;;;;8.75;6.82;;;;;;;;;;5054254;28;20029;-60
2021/08/14 08:19:40;;;;;;;7.25;6.55;;;;;;;;;;5054124;28;20501;-60
2021/08/14 08:22:06;;;;;;;9.82;6.45;;;;;;;;;;5054477;28;20079;-60
2021/08/14 08:24:32;;;;;;;8.55;7.40;;;;;;;;;;5054125;28;20049;-60
2021/08/14 08:26:58;;;;;;;7.22;5.88;;;;;;;;;;5055301;28;20122;-60
2021/08/14 08:29:24;;;;;;;12.13;6.38;;;;;;;;;;5053603;28;20047;-60
2021/08/14 08:31:50;;;;;;;6.50;5.82;;;;;;;;;;5054285;28;20029;-60
2021/08/14 08:34:16;;;;;;;10.00;6.30;;;;;;;;;;5053687;28;20032;-60
2021/08/14 08:36:42;;;;;;;9.18;5.53;;;;;;;;;;5053659;28;20029;-60
2021/08/14 08:39:08;;;;;;;9.07;5.93;;;;;;;;;;5053681;28;20020;-60
2021/08/14 08:41:35;;;;;;;6.53;5.25;;;;;;;;;;5052944;28;20027;-60
2021/08/14 08:44:01;;;;;;;7.72;6.07;;;;;;;;;;5052796;28;20021;-60
2021/08/14 08:46:31;;;;;;;6.50;5.80;;;;;;;;;;5053600;28;20029;-60
2021/08/14 08:48:57;;;;;;;;;;;;;;;;;;5053843;28;20383;-60
2021/08/14 08:51:29;;;;;;;9.30;4.40;;;;;;;;;;5053981;28;19908;-60
2021/08/14 08:53:55;;;;;;;6.22;5.63;;;;;;;;;;5053406;28;20455;-60
2021/08/14 08:56:21;;;;;;;6.00;5.10;;;;;;;;;;5052478;28;20028;-60
2021/08/14 08:58:47;;;;;;;6.22;4.60;;;;;;;;;;5053845;28;20029;-60
2021/08/14 09:01:13;;;;;;;5.65;4.45;;;;;;;;;;5053963;28;20025;-60
2021/08/14 09:03:40;;;;;;;8.13;5.80;;;;;;;;;;5053625;28;20546;-60
2021/08/14 09:06:06;;;;;;;7.28;5.03;;;;;;;;;;5053514;28;20589;-60
2021/08/14 09:08:32;;;;;;;8.35;5.07;;;;;;;;;;5053763;28;20036;-60
2021/08/14 09:11:07;;;;;;;6.78;5.32;;;;;;;;;;5053484;28;20033;-60
2021/08/14 09:13:33;;;;;;;7.25;5.10;;;;;;;;;;5056346;28;20029;-60
2021/08/14 09:16:16;;;;;;;4.80;4.28;;;;;;;;;;5058061;28;20031;-60
2021/08/14 09:18:53;;;;;;;7.68;5.15;;;;;;;;;;5058288;28;20086;-60
2021/08/14 09:21:29;;;;;;;6.28;4.75;;;;;;;;;;5057999;28;20028;-60
2021/08/14 09:23:55;;;;;;;5.95;5.32;;;;;;;;;;5057988;28;20404;-60
2021/08/14 09:26:21;;;;;;;5.68;5.03;;;;;;;;;;5056887;28;20045;-60
2021/08/14 09:28:46;;;;;;;5.50;4.43;;;;;;;;;;5057354;28;20090;-60
2021/08/14 09:31:14;;;;;;;6.72;4.95;;;;;;;;;;5057291;28;20037;-60
2021/08/14 09:33:40;;;;;;;8.38;4.82;;;;;;;;;;5057796;28;20033;-60
2021/08/14 09:36:08;;;;;;;7.00;6.28;;;;;;;;;;5057334;28;20100;-60
2021/08/14 09:38:37;;;;;;;7.63;5.13;;;;;;;;;;5057228;28;20340;-60
2021/08/14 09:41:07;;;;;;;6.38;4.78;;;;;;;;;;5057216;28;20094;-60
2021/08/14 09:43:35;;;;;;;7.85;5.25;;;;;;;;;;5056241;28;20055;-60
2021/08/14 09:46:01;;;;;;;6.28;4.65;;;;;;;;;;5057293;28;20409;-60
2021/08/14 09:48:28;;;;;;;7.22;5.07;;;;;;;;;;5056905;28;20029;-60
2021/08/14 09:50:54;;;;;;;8.35;5.70;;;;;;;;;;5056852;28;20410;-60
2021/08/14 09:53:21;;;;;;;8.18;6.05;;;;;;;;;;5056943;28;20021;-60
2021/08/14 09:55:50;;;;;;;6.28;5.55;;;;;;;;;;5056895;28;20061;-60
2021/08/14 09:58:17;;;;;;;6.80;5.32;;;;;;;;;;5056742;28;20061;-60
2021/08/14 10:00:44;;;;;;;10.23;5.50;;;;;;;;;;5057267;28;20025;-60
2021/08/14 10:03:11;;;;;;;5.50;4.57;;;;;;;;;;5057041;28;20056;-60
2021/08/14 10:05:37;;;;;;;7.15;5.55;;;;;;;;;;5056873;28;20029;-60
2021/08/14 10:08:04;;;;;;;8.82;5.32;;;;;;;;;;5057122;28;20052;-60
2021/08/14 10:10:30;;;;;;;6.03;4.90;;;;;;;;;;5056563;28;20100;-60
2021/08/14 10:13:00;;;;;;;7.03;4.97;;;;;;;;;;5056693;28;20025;-60
2021/08/14 10:15:27;;;;;;;9.68;5.50;;;;;;;;;;5056709;28;20025;-60
2021/08/14 10:17:53;;;;;;;6.10;5.47;;;;;;;;;;5056458;28;20026;-60
2021/08/14 10:20:19;;;;;;;8.80;6.35;;;;;;;;;;5056399;28;20199;-60
2021/08/14 10:22:46;;;;;;;9.23;5.65;;;;;;;;;;5056684;28;20032;-60
2021/08/14 10:25:20;;;;;;;5.70;5.10;;;;;;;;;;5055370;28;20080;-60
2021/08/14 10:27:57;;;;;;;6.30;4.88;;;;;;;;;;5056210;28;20064;-60
2021/08/14 10:30:42;;;;;;;6.65;5.20;;;;;;;;;;5056429;28;20401;-60
2021/08/14 10:33:09;;;;;;;7.38;4.85;;;;;;;;;;5056317;28;20033;-60
2021/08/14 10:35:36;;;;;;;5.75;5.07;;;;;;;;;;5056122;28;20025;-60
2021/08/14 10:38:02;;;;;;;6.00;4.68;;;;;;;;;;5056082;28;20028;-60
2021/08/14 10:40:47;;;;;;;5.95;4.55;;;;;;;;;;5056150;28;20053;-60
2021/08/14 10:43:13;;;;;;;5.63;5.07;;;;;;;;;;5055904;28;20098;-60
2021/08/14 10:45:39;;;;;;;6.70;4.90;;;;;;;;;;5056320;28;20351;-60
2021/08/14 10:48:06;;;;;;;5.97;5.13;;;;;;;;;;5056516;28;20025;-60
2021/08/14 10:50:32;;;;;;;5.97;5.18;;;;;;;;;;5055641;28;20033;-60
2021/08/14 10:53:17;;;;;;;6.60;5.40;;;;;;;;;;5056170;28;20033;-60
2021/08/14 10:55:45;;;;;;;5.85;5.18;;;;;;;;;;5056279;28;20025;-60
2021/08/14 10:58:23;;;;;;;6.40;5.15;;;;;;;;;;5056500;28;20037;-60
2021/08/14 11:00:54;;;;;;;6.35;5.60;;;;;;;;;;5056316;28;20029;-60
2021/08/14 11:03:21;;;;;;;7.20;5.25;;;;;;;;;;5055227;28;20469;-60
2021/08/14 11:05:47;;;;;;;7.10;4.75;;;;;;;;;;5055316;28;20493;-60
2021/08/14 11:08:27;;;;;;;4.70;4.10;;;;;;;;;;5055887;28;20073;-60
2021/08/14 11:10:53;;;;;;;7.50;5.47;;;;;;;;;;5055514;28;20031;-58
2021/08/14 11:13:31;;;;;;;5.32;4.72;;;;;;;;;;5056041;28;20037;-58
2021/08/14 11:15:58;;;;;;;7.93;5.40;;;;;;;;;;5055329;28;20120;-58
2021/08/14 11:18:47;;;;;;;6.15;5.10;;;;;;;;;;5055376;28;20521;-58
2021/08/14 11:21:12;;;;;;;5.70;5.05;;;;;;;;;;5054812;28;20120;-58
2021/08/14 11:23:55;;;;;;;6.45;5.43;;;;;;;;;;5055654;28;20067;-58
2021/08/14 11:26:31;;;;;;;6.57;5.78;;;;;;;;;;5055151;28;20490;-58
2021/08/14 11:28:58;;;;;;;6.20;5.60;;;;;;;;;;5054708;28;20447;-58
2021/08/14 11:31:25;;;;;;;9.15;5.95;;;;;;;;;;5054693;28;20025;-58
2021/08/14 11:33:58;;;;;;;8.30;5.95;;;;;;;;;;5053780;28;20072;-58
2021/08/14 11:36:29;;;;;;;7.28;5.93;;;;;;;;;;5054287;28;20036;-59
2021/08/14 11:39:00;;;;;;;6.45;5.15;;;;;;;;;;5055756;28;20029;-59
2021/08/14 11:41:26;;;;;;;6.95;5.10;;;;;;;;;;5055315;28;20033;-59
2021/08/14 11:43:52;;;;;;;5.95;4.85;;;;;;;;;;5054837;28;20367;-59
2021/08/14 11:46:23;;;;;;;7.47;5.60;;;;;;;;;;5054877;28;20039;-59
2021/08/14 11:48:49;;;;;;;6.72;5.47;;;;;;;;;;5055430;28;20029;-59
2021/08/14 11:51:20;;;;;;;5.78;5.03;;;;;;;;;;5054985;28;20021;-59
2021/08/14 11:53:46;;;;;;;;;;;;;;;;;;5055785;28;20390;-59
2021/08/14 11:56:13;;;;;;;10.25;6.05;;;;;;;;;;5054709;28;19905;-59
2021/08/14 11:58:39;;;;;;;7.30;5.28;;;;;;;;;;5054615;28;20031;-60
2021/08/14 12:01:06;;;;;;;5.78;5.18;;;;;;;;;;5054578;28;20071;-59
2021/08/14 12:03:32;;;;;;;6.80;5.38;;;;;;;;;;5054856;28;20105;-59
2021/08/14 12:06:09;;;;;;;8.48;5.85;;;;;;;;;;5054563;28;20027;-59
2021/08/14 12:08:39;;;;;;;6.55;5.25;;;;;;;;;;5054417;28;20025;-59
2021/08/14 12:11:07;;;;;;;6.20;5.57;;;;;;;;;;5054876;28;20340;-59
2021/08/14 12:13:33;;;;;;;7.85;6.10;;;;;;;;;;5054949;28;20049;-59
2021/08/14 12:16:12;;;;;;;7.75;5.68;;;;;;;;;;5054334;28;20021;-59
2021/08/14 12:18:38;;;;;;;8.90;5.40;;;;;;;;;;5054297;28;20108;-59
2021/08/14 12:21:06;;;;;;;7.13;5.65;;;;;;;;;;5053987;28;20017;-59
2021/08/14 12:23:33;;;;;;;6.25;4.88;;;;;;;;;;5054662;28;20029;-59
2021/08/14 12:26:01;;;;;;;7.90;4.25;;;;;;;;;;5054019;28;20060;-59
2021/08/14 12:28:31;;;;;;;6.28;5.20;;;;;;;;;;5054330;28;20021;-59
2021/08/14 12:30:58;;;;;;;9.00;5.35;;;;;;;;;;5054163;28;20376;-59
2021/08/14 12:33:24;;;;;;;8.70;6.30;;;;;;;;;;5054445;28;20382;-59
2021/08/14 12:35:57;;;;;;;5.45;4.90;;;;;;;;;;5054539;28;20025;-59
2021/08/14 12:38:23;;;;;;;7.35;5.53;;;;;;;;;;5054015;28;20027;-59
2021/08/14 12:40:49;;;;;;;5.88;5.22;;;;;;;;;;5054017;28;20467;-59
2021/08/14 12:43:19;;;;;;;8.00;5.57;;;;;;;;;;5053991;28;20025;-59
2021/08/14 12:45:45;;;;;;;6.25;5.03;;;;;;;;;;5053973;28;20032;-59
2021/08/14 12:48:11;;;;;;;7.03;5.57;;;;;;;;;;5053667;28;20024;-59
2021/08/14 12:50:39;;;;;;;7.65;5.82;;;;;;;;;;5053785;28;20065;-59
2021/08/14 12:53:05;;;;;;;5.43;4.93;;;;;;;;;;5054431;28;20442;-59
2021/08/14 12:55:31;;;;;;;10.48;6.32;;;;;;;;;;5053741;28;20063;-59
2021/08/14 12:58:05;;;;;;;8.00;5.18;;;;;;;;;;5054019;28;20056;-59
2021/08/14 13:00:31;;;;;;;9.63;5.43;;;;;;;;;;5053693;28;20116;-59
2021/08/14 13:02:57;;;;;;;9.13;5.55;;;;;;;;;;5053519;28;20490;-59
2021/08/14 13:05:23;;;;;;;5.60;4.82;;;;;;;;;;5053317;28;20423;-59
2021/08/14 13:07:50;;;;;;;6.55;5.53;;;;;;;;;;5054085;28;20029;-59
2021/08/14 13:10:16;;;;;;;5.53;4.35;;;;;;;;;;5053184;28;20029;-59
2021/08/14 13:12:46;;;;;;;7.05;6.05;;;;;;;;;;5053595;28;20032;-59
2021/08/14 13:15:12;;;;;;;5.55;5.00;;;;;;;;;;5053564;28;20028;-59
2021/08/14 13:17:38;;;;;;;6.38;5.55;;;;;;;;;;5053242;28;20095;-59
2021/08/14 13:20:04;;;;;;;6.57;5.78;;;;;;;;;;5053876;28;20037;-59
2021/08/14 13:22:31;;;;;;;7.68;5.40;;;;;;;;;;5053929;28;20067;-59
2021/08/14 13:24:56;;;;;;;7.07;6.10;;;;;;;;;;5053085;28;20043;-59
2021/08/14 13:27:23;;;;;;;8.00;5.80;;;;;;;;;;5053507;28;20379;-59
2021/08/14 13:29:49;;;;;;;6.75;5.80;;;;;;;;;;5053234;28;20104;-59
2021/08/14 13:32:15;;;;;;;11.02;7.13;;;;;;;;;;5053468;28;20120;-59
2021/08/14 13:34:41;;;;;;;6.75;5.78;;;;;;;;;;5053128;28;20029;-59
2021/08/14 13:37:07;;;;;;;8.02;5.75;;;;;;;;;;5053272;28;20526;-59
2021/08/14 13:39:33;;;;;;;8.05;6.65;;;;;;;;;;5053055;28;20017;-59
2021/08/14 13:41:59;;;;;;;7.80;6.28;;;;;;;;;;5053578;28;20446;-59
2021/08/14 13:44:25;;;;;;;6.70;6.00;;;;;;;;;;5053711;28;20074;-59
2021/08/14 13:46:51;;;;;;;5.90;5.03;;;;;;;;;;5053261;28;20319;-59
2021/08/14 13:49:16;;;;;;;8.40;6.65;;;;;;;;;;5053365;28;20108;-60
2021/08/14 13:51:42;;;;;;;8.63;5.82;;;;;;;;;;5053470;28;20025;-59
2021/08/14 13:54:09;;;;;;;6.63;5.65;;;;;;;;;;5053375;28;20454;-59
2021/08/14 13:56:35;;;;;;;6.25;5.60;;;;;;;;;;5053176;28;20033;-59
2021/08/14 13:59:01;;;;;;;6.90;5.68;;;;;;;;;;5053187;28;20036;-60
2021/08/14 14:01:28;;;;;;;7.05;5.22;;;;;;;;;;5057043;28;20021;-59
2021/08/14 14:03:54;;;;;;;5.45;4.90;;;;;;;;;;5057249;28;20021;-59
2021/08/14 14:06:20;;;;;;;5.90;5.30;;;;;;;;;;5057530;28;20032;-59
2021/08/14 14:08:46;;;;;;;5.53;4.55;;;;;;;;;;5057120;28;20063;-59
2021/08/14 14:11:12;;;;;;;8.02;6.10;;;;;;;;;;5056599;28;20136;-59
2021/08/14 14:13:38;;;;;;;6.93;5.60;;;;;;;;;;5057044;28;20032;-59
2021/08/14 14:16:04;;;;;;;6.80;5.70;;;;;;;;;;5056472;28;20021;-59
2021/08/14 14:18:30;;;;;;;7.28;5.70;;;;;;;;;;5056660;28;20104;-59
2021/08/14 14:20:56;;;;;;;6.45;5.50;;;;;;;;;;5056923;28;20495;-59
2021/08/14 14:23:22;;;;;;;7.32;5.88;;;;;;;;;;5056787;28;20036;-59
2021/08/14 14:25:48;;;;;;;7.50;6.50;;;;;;;;;;5057145;28;20041;-59
2021/08/14 14:28:14;;;;;;;8.73;5.65;;;;;;;;;;5056441;28;20067;-59
2021/08/14 14:30:44;;;;;;;5.97;5.38;;;;;;;;;;5056473;28;20025;-59
2021/08/14 14:33:10;;;;;;;7.13;5.90;;;;;;;;;;5056401;28;20025;-59
2021/08/14 14:35:36;;;;;;;7.85;5.38;;;;;;;;;;5056804;28;20519;-58
2021/08/14 14:38:03;;;;;;;6.18;5.18;;;;;;;;;;5056201;28;20029;-59
2021/08/14 14:40:29;;;;;;;6.88;5.80;;;;;;;;;;5056343;28;20132;-59
2021/08/14 14:42:55;;;;;;;7.80;5.95;;;;;;;;;;5055525;28;20356;-59